sensor_id;sensor_type;location;lat;lon;timestamp;P1;durP1;ratioP1;P2;durP2;ratioP2
12852;SDS011;6495;51.808;7.478;2024-03-06T00:00:06;13.93;;;8.30;;
12852;SDS011;6495;51.808;7.478;2024-03-06T00:02:35;13.37;;;8.50;;
12852;SDS011;6495;51.808;7.478;2024-03-06T00:05:04;12.37;;;8.23;;
12852;SDS011;6495;51.808;7.478;2024-03-06T00:07:34;11.77;;;7.17;;
12852;SDS011;6495;51.808;7.478;2024-03-06T00:10:03;11.80;;;8.03;;
12852;SDS011;6495;51.808;7.478;2024-03-06T00:12:32;11.90;;;7.60;;
12852;SDS011;6495;51.808;7.478;2024-03-06T00:15:01;11.17;;;7.73;;
12852;SDS011;6495;51.808;7.478;2024-03-06T00:17:31;14.10;;;7.93;;
12852;SDS011;6495;51.808;7.478;2024-03-06T00:19:59;10.43;;;6.67;;
12852;SDS011;6495;51.808;7.478;2024-03-06T00:22:27;13.00;;;8.10;;
12852;SDS011;6495;51.808;7.478;2024-03-06T00:24:56;14.33;;;8.60;;
12852;SDS011;6495;51.808;7.478;2024-03-06T00:27:24;12.73;;;8.02;;
12852;SDS011;6495;51.808;7.478;2024-03-06T00:29:52;14.60;;;8.73;;
12852;SDS011;6495;51.808;7.478;2024-03-06T00:32:20;14.03;;;8.43;;
12852;SDS011;6495;51.808;7.478;2024-03-06T00:34:51;13.97;;;8.40;;
12852;SDS011;6495;51.808;7.478;2024-03-06T00:37:19;14.17;;;8.83;;
12852;SDS011;6495;51.808;7.478;2024-03-06T00:39:47;12.83;;;8.30;;
12852;SDS011;6495;51.808;7.478;2024-03-06T00:42:16;14.83;;;8.60;;
12852;SDS011;6495;51.808;7.478;2024-03-06T00:44:44;14.53;;;8.47;;
12852;SDS011;6495;51.808;7.478;2024-03-06T00:47:13;14.80;;;8.70;;
12852;SDS011;6495;51.808;7.478;2024-03-06T00:49:41;11.80;;;7.60;;
12852;SDS011;6495;51.808;7.478;2024-03-06T00:52:11;14.70;;;8.50;;
12852;SDS011;6495;51.808;7.478;2024-03-06T00:54:42;14.80;;;9.53;;
12852;SDS011;6495;51.808;7.478;2024-03-06T00:57:11;14.47;;;9.10;;
12852;SDS011;6495;51.808;7.478;2024-03-06T00:59:39;15.20;;;8.57;;
12852;SDS011;6495;51.808;7.478;2024-03-06T01:02:07;14.87;;;9.00;;
12852;SDS011;6495;51.808;7.478;2024-03-06T01:04:35;13.27;;;8.27;;
12852;SDS011;6495;51.808;7.478;2024-03-06T01:07:03;16.13;;;9.03;;
12852;SDS011;6495;51.808;7.478;2024-03-06T01:09:33;16.17;;;9.50;;
12852;SDS011;6495;51.808;7.478;2024-03-06T01:12:01;16.73;;;9.70;;
12852;SDS011;6495;51.808;7.478;2024-03-06T01:14:30;17.97;;;10.00;;
12852;SDS011;6495;51.808;7.478;2024-03-06T01:16:58;15.60;;;10.17;;
12852;SDS011;6495;51.808;7.478;2024-03-06T01:19:27;16.13;;;9.20;;
12852;SDS011;6495;51.808;7.478;2024-03-06T01:21:55;16.40;;;9.47;;
12852;SDS011;6495;51.808;7.478;2024-03-06T01:24:23;16.67;;;9.47;;
12852;SDS011;6495;51.808;7.478;2024-03-06T01:26:53;15.43;;;9.67;;
12852;SDS011;6495;51.808;7.478;2024-03-06T01:29:21;12.32;;;9.00;;
12852;SDS011;6495;51.808;7.478;2024-03-06T01:31:49;16.67;;;9.33;;
12852;SDS011;6495;51.808;7.478;2024-03-06T01:34:18;14.00;;;9.50;;
12852;SDS011;6495;51.808;7.478;2024-03-06T01:36:46;16.03;;;10.10;;
12852;SDS011;6495;51.808;7.478;2024-03-06T01:39:14;13.47;;;9.10;;
12852;SDS011;6495;51.808;7.478;2024-03-06T01:41:44;13.70;;;8.63;;
12852;SDS011;6495;51.808;7.478;2024-03-06T01:44:15;13.40;;;9.23;;
12852;SDS011;6495;51.808;7.478;2024-03-06T01:46:45;12.80;;;8.50;;
12852;SDS011;6495;51.808;7.478;2024-03-06T01:49:14;15.63;;;9.23;;
12852;SDS011;6495;51.808;7.478;2024-03-06T01:51:57;13.33;;;8.57;;
12852;SDS011;6495;51.808;7.478;2024-03-06T01:54:28;14.37;;;8.90;;
12852;SDS011;6495;51.808;7.478;2024-03-06T01:56:58;14.87;;;8.90;;
12852;SDS011;6495;51.808;7.478;2024-03-06T01:59:30;14.27;;;9.27;;
12852;SDS011;6495;51.808;7.478;2024-03-06T02:02:03;15.67;;;8.70;;
12852;SDS011;6495;51.808;7.478;2024-03-06T02:04:34;16.25;;;9.10;;
12852;SDS011;6495;51.808;7.478;2024-03-06T02:07:02;15.13;;;8.97;;
12852;SDS011;6495;51.808;7.478;2024-03-06T02:09:36;13.73;;;8.17;;
12852;SDS011;6495;51.808;7.478;2024-03-06T02:12:05;11.30;;;8.47;;
12852;SDS011;6495;51.808;7.478;2024-03-06T02:14:38;13.60;;;8.57;;
12852;SDS011;6495;51.808;7.478;2024-03-06T02:17:06;11.10;;;7.70;;
12852;SDS011;6495;51.808;7.478;2024-03-06T02:19:38;11.60;;;7.60;;
12852;SDS011;6495;51.808;7.478;2024-03-06T02:22:10;16.80;;;8.23;;
12852;SDS011;6495;51.808;7.478;2024-03-06T02:24:44;13.10;;;7.70;;
12852;SDS011;6495;51.808;7.478;2024-03-06T02:27:15;16.97;;;9.77;;
12852;SDS011;6495;51.808;7.478;2024-03-06T02:29:44;14.03;;;8.40;;
12852;SDS011;6495;51.808;7.478;2024-03-06T02:32:14;13.93;;;7.80;;
12852;SDS011;6495;51.808;7.478;2024-03-06T02:34:44;13.50;;;8.17;;
12852;SDS011;6495;51.808;7.478;2024-03-06T02:37:14;13.60;;;8.27;;
12852;SDS011;6495;51.808;7.478;2024-03-06T02:39:42;14.23;;;9.07;;
12852;SDS011;6495;51.808;7.478;2024-03-06T02:42:11;15.73;;;9.13;;
12852;SDS011;6495;51.808;7.478;2024-03-06T02:44:39;15.77;;;9.30;;
12852;SDS011;6495;51.808;7.478;2024-03-06T02:47:08;14.70;;;9.00;;
12852;SDS011;6495;51.808;7.478;2024-03-06T02:49:36;12.23;;;8.50;;
12852;SDS011;6495;51.808;7.478;2024-03-06T02:52:05;15.80;;;9.20;;
12852;SDS011;6495;51.808;7.478;2024-03-06T02:54:34;11.97;;;8.27;;
12852;SDS011;6495;51.808;7.478;2024-03-06T02:57:03;12.33;;;8.87;;
12852;SDS011;6495;51.808;7.478;2024-03-06T02:59:34;14.60;;;8.30;;
12852;SDS011;6495;51.808;7.478;2024-03-06T03:02:02;11.27;;;7.73;;
12852;SDS011;6495;51.808;7.478;2024-03-06T03:04:31;10.83;;;8.07;;
12852;SDS011;6495;51.808;7.478;2024-03-06T03:06:59;13.03;;;7.77;;
12852;SDS011;6495;51.808;7.478;2024-03-06T03:09:27;11.83;;;7.93;;
12852;SDS011;6495;51.808;7.478;2024-03-06T03:11:57;11.30;;;7.53;;
12852;SDS011;6495;51.808;7.478;2024-03-06T03:14:25;11.63;;;7.30;;
12852;SDS011;6495;51.808;7.478;2024-03-06T03:16:53;15.20;;;8.33;;
12852;SDS011;6495;51.808;7.478;2024-03-06T03:19:22;14.20;;;8.43;;
12852;SDS011;6495;51.808;7.478;2024-03-06T03:21:50;14.33;;;7.93;;
12852;SDS011;6495;51.808;7.478;2024-03-06T03:24:18;12.43;;;8.23;;
12852;SDS011;6495;51.808;7.478;2024-03-06T03:26:48;11.97;;;8.30;;
12852;SDS011;6495;51.808;7.478;2024-03-06T03:29:18;13.77;;;8.53;;
12852;SDS011;6495;51.808;7.478;2024-03-06T03:31:47;14.50;;;8.70;;
12852;SDS011;6495;51.808;7.478;2024-03-06T03:34:15;13.47;;;8.40;;
12852;SDS011;6495;51.808;7.478;2024-03-06T03:36:43;14.70;;;8.97;;
12852;SDS011;6495;51.808;7.478;2024-03-06T03:39:12;13.87;;;8.80;;
12852;SDS011;6495;51.808;7.478;2024-03-06T03:41:42;14.63;;;8.90;;
12852;SDS011;6495;51.808;7.478;2024-03-06T03:44:12;14.43;;;8.57;;
12852;SDS011;6495;51.808;7.478;2024-03-06T03:46:42;16.77;;;9.27;;
12852;SDS011;6495;51.808;7.478;2024-03-06T03:49:11;17.23;;;9.37;;
12852;SDS011;6495;51.808;7.478;2024-03-06T03:51:40;15.67;;;8.90;;
12852;SDS011;6495;51.808;7.478;2024-03-06T03:54:08;17.03;;;9.37;;
12852;SDS011;6495;51.808;7.478;2024-03-06T03:56:36;13.67;;;8.73;;
12852;SDS011;6495;51.808;7.478;2024-03-06T03:59:05;15.10;;;8.83;;
12852;SDS011;6495;51.808;7.478;2024-03-06T04:01:33;16.30;;;9.30;;
12852;SDS011;6495;51.808;7.478;2024-03-06T04:04:03;16.20;;;9.97;;
12852;SDS011;6495;51.808;7.478;2024-03-06T04:06:33;16.77;;;10.20;;
12852;SDS011;6495;51.808;7.478;2024-03-06T04:09:01;14.67;;;8.97;;
12852;SDS011;6495;51.808;7.478;2024-03-06T04:11:30;19.70;;;9.67;;
12852;SDS011;6495;51.808;7.478;2024-03-06T04:14:00;15.27;;;8.87;;
12852;SDS011;6495;51.808;7.478;2024-03-06T04:16:28;17.40;;;9.30;;
12852;SDS011;6495;51.808;7.478;2024-03-06T04:18:59;13.60;;;8.80;;
12852;SDS011;6495;51.808;7.478;2024-03-06T04:21:29;16.23;;;9.37;;
12852;SDS011;6495;51.808;7.478;2024-03-06T04:23:58;13.50;;;9.37;;
12852;SDS011;6495;51.808;7.478;2024-03-06T04:26:26;16.80;;;9.63;;
12852;SDS011;6495;51.808;7.478;2024-03-06T04:28:54;17.20;;;9.60;;
12852;SDS011;6495;51.808;7.478;2024-03-06T04:31:22;16.77;;;9.43;;
12852;SDS011;6495;51.808;7.478;2024-03-06T04:33:51;16.23;;;9.70;;
12852;SDS011;6495;51.808;7.478;2024-03-06T04:36:22;17.00;;;9.40;;
12852;SDS011;6495;51.808;7.478;2024-03-06T04:38:52;16.53;;;9.70;;
12852;SDS011;6495;51.808;7.478;2024-03-06T04:41:20;14.33;;;8.70;;
12852;SDS011;6495;51.808;7.478;2024-03-06T04:43:49;14.83;;;9.23;;
12852;SDS011;6495;51.808;7.478;2024-03-06T04:46:19;15.97;;;9.60;;
12852;SDS011;6495;51.808;7.478;2024-03-06T04:48:47;18.30;;;9.53;;
12852;SDS011;6495;51.808;7.478;2024-03-06T04:51:17;15.23;;;9.13;;
12852;SDS011;6495;51.808;7.478;2024-03-06T04:53:46;15.53;;;9.70;;
12852;SDS011;6495;51.808;7.478;2024-03-06T04:56:17;15.20;;;9.07;;
12852;SDS011;6495;51.808;7.478;2024-03-06T04:58:48;13.57;;;8.73;;
12852;SDS011;6495;51.808;7.478;2024-03-06T05:01:18;11.13;;;7.43;;
12852;SDS011;6495;51.808;7.478;2024-03-06T05:03:46;10.47;;;7.50;;
12852;SDS011;6495;51.808;7.478;2024-03-06T05:06:33;11.77;;;7.40;;
12852;SDS011;6495;51.808;7.478;2024-03-06T05:09:19;10.93;;;6.80;;
12852;SDS011;6495;51.808;7.478;2024-03-06T05:12:06;9.57;;;6.70;;
12852;SDS011;6495;51.808;7.478;2024-03-06T05:14:53;9.67;;;6.80;;
12852;SDS011;6495;51.808;7.478;2024-03-06T05:17:40;8.73;;;6.27;;
12852;SDS011;6495;51.808;7.478;2024-03-06T05:20:27;12.47;;;7.90;;
12852;SDS011;6495;51.808;7.478;2024-03-06T05:23:15;11.47;;;7.13;;
12852;SDS011;6495;51.808;7.478;2024-03-06T05:26:01;14.83;;;9.17;;
12852;SDS011;6495;51.808;7.478;2024-03-06T05:28:49;12.93;;;8.27;;
12852;SDS011;6495;51.808;7.478;2024-03-06T05:31:35;14.90;;;8.97;;
12852;SDS011;6495;51.808;7.478;2024-03-06T05:34:21;12.93;;;8.30;;
12852;SDS011;6495;51.808;7.478;2024-03-06T05:37:07;11.63;;;7.10;;
12852;SDS011;6495;51.808;7.478;2024-03-06T05:39:53;12.30;;;8.07;;
12852;SDS011;6495;51.808;7.478;2024-03-06T05:42:39;12.20;;;7.13;;
12852;SDS011;6495;51.808;7.478;2024-03-06T05:45:27;13.57;;;7.30;;
12852;SDS011;6495;51.808;7.478;2024-03-06T05:48:14;12.73;;;7.80;;
12852;SDS011;6495;51.808;7.478;2024-03-06T05:51:00;10.33;;;6.27;;
12852;SDS011;6495;51.808;7.478;2024-03-06T05:53:46;10.30;;;6.57;;
12852;SDS011;6495;51.808;7.478;2024-03-06T05:56:32;12.10;;;6.83;;
12852;SDS011;6495;51.808;7.478;2024-03-06T05:59:17;10.43;;;7.00;;
12852;SDS011;6495;51.808;7.478;2024-03-06T06:01:48;12.17;;;7.07;;
12852;SDS011;6495;51.808;7.478;2024-03-06T06:04:16;12.40;;;7.83;;
12852;SDS011;6495;51.808;7.478;2024-03-06T06:06:44;10.47;;;7.20;;
12852;SDS011;6495;51.808;7.478;2024-03-06T06:09:12;12.30;;;7.83;;
12852;SDS011;6495;51.808;7.478;2024-03-06T06:11:45;13.07;;;8.40;;
12852;SDS011;6495;51.808;7.478;2024-03-06T06:14:15;12.13;;;7.83;;
12852;SDS011;6495;51.808;7.478;2024-03-06T06:16:43;14.83;;;8.40;;
12852;SDS011;6495;51.808;7.478;2024-03-06T06:19:13;11.47;;;7.80;;
12852;SDS011;6495;51.808;7.478;2024-03-06T06:21:41;13.20;;;7.53;;
12852;SDS011;6495;51.808;7.478;2024-03-06T06:24:14;15.67;;;8.80;;
12852;SDS011;6495;51.808;7.478;2024-03-06T06:26:44;14.10;;;8.87;;
12852;SDS011;6495;51.808;7.478;2024-03-06T06:29:13;13.60;;;8.10;;
12852;SDS011;6495;51.808;7.478;2024-03-06T06:31:41;13.87;;;9.27;;
12852;SDS011;6495;51.808;7.478;2024-03-06T06:34:09;15.20;;;9.23;;
12852;SDS011;6495;51.808;7.478;2024-03-06T06:36:44;14.70;;;8.53;;
12852;SDS011;6495;51.808;7.478;2024-03-06T06:39:16;15.97;;;8.93;;
12852;SDS011;6495;51.808;7.478;2024-03-06T06:41:44;15.40;;;9.20;;
12852;SDS011;6495;51.808;7.478;2024-03-06T06:44:13;15.00;;;9.30;;
12852;SDS011;6495;51.808;7.478;2024-03-06T06:46:41;17.27;;;9.77;;
12852;SDS011;6495;51.808;7.478;2024-03-06T06:49:10;17.97;;;9.60;;
12852;SDS011;6495;51.808;7.478;2024-03-06T06:51:40;12.73;;;8.57;;
12852;SDS011;6495;51.808;7.478;2024-03-06T06:54:08;13.83;;;8.27;;
12852;SDS011;6495;51.808;7.478;2024-03-06T06:56:40;15.87;;;9.57;;
12852;SDS011;6495;51.808;7.478;2024-03-06T06:59:08;15.23;;;8.93;;
12852;SDS011;6495;51.808;7.478;2024-03-06T07:01:39;13.93;;;9.33;;
12852;SDS011;6495;51.808;7.478;2024-03-06T07:04:08;15.47;;;9.40;;
12852;SDS011;6495;51.808;7.478;2024-03-06T07:06:40;13.60;;;9.40;;
12852;SDS011;6495;51.808;7.478;2024-03-06T07:09:08;14.20;;;9.80;;
12852;SDS011;6495;51.808;7.478;2024-03-06T07:11:36;20.70;;;11.40;;
12852;SDS011;6495;51.808;7.478;2024-03-06T07:14:08;16.60;;;10.17;;
12852;SDS011;6495;51.808;7.478;2024-03-06T07:16:41;15.67;;;9.90;;
12852;SDS011;6495;51.808;7.478;2024-03-06T07:19:10;17.53;;;10.73;;
12852;SDS011;6495;51.808;7.478;2024-03-06T07:21:42;21.90;;;11.43;;
12852;SDS011;6495;51.808;7.478;2024-03-06T07:24:10;17.67;;;10.97;;
12852;SDS011;6495;51.808;7.478;2024-03-06T07:26:38;20.47;;;11.20;;
12852;SDS011;6495;51.808;7.478;2024-03-06T07:29:06;14.60;;;10.00;;
12852;SDS011;6495;51.808;7.478;2024-03-06T07:31:41;18.10;;;10.47;;
12852;SDS011;6495;51.808;7.478;2024-03-06T07:34:10;16.43;;;10.23;;
12852;SDS011;6495;51.808;7.478;2024-03-06T07:36:41;21.57;;;11.30;;
12852;SDS011;6495;51.808;7.478;2024-03-06T07:39:09;16.30;;;10.30;;
12852;SDS011;6495;51.808;7.478;2024-03-06T07:41:38;15.70;;;10.33;;
12852;SDS011;6495;51.808;7.478;2024-03-06T07:44:07;18.53;;;11.23;;
12852;SDS011;6495;51.808;7.478;2024-03-06T07:46:35;20.20;;;11.70;;
12852;SDS011;6495;51.808;7.478;2024-03-06T07:49:04;18.87;;;10.50;;
12852;SDS011;6495;51.808;7.478;2024-03-06T07:51:32;20.93;;;11.90;;
12852;SDS011;6495;51.808;7.478;2024-03-06T07:54:05;19.80;;;11.60;;
12852;SDS011;6495;51.808;7.478;2024-03-06T07:56:33;21.00;;;11.27;;
12852;SDS011;6495;51.808;7.478;2024-03-06T07:59:02;22.20;;;12.23;;
12852;SDS011;6495;51.808;7.478;2024-03-06T08:01:31;24.33;;;11.60;;
12852;SDS011;6495;51.808;7.478;2024-03-06T08:03:59;18.37;;;12.30;;
12852;SDS011;6495;51.808;7.478;2024-03-06T08:06:28;21.37;;;11.77;;
12852;SDS011;6495;51.808;7.478;2024-03-06T08:08:59;22.37;;;12.00;;
12852;SDS011;6495;51.808;7.478;2024-03-06T08:11:30;19.70;;;12.10;;
12852;SDS011;6495;51.808;7.478;2024-03-06T08:13:59;18.87;;;11.63;;
12852;SDS011;6495;51.808;7.478;2024-03-06T08:16:29;23.17;;;11.73;;
12852;SDS011;6495;51.808;7.478;2024-03-06T08:19:02;18.97;;;12.30;;
12852;SDS011;6495;51.808;7.478;2024-03-06T08:21:30;19.70;;;11.37;;
12852;SDS011;6495;51.808;7.478;2024-03-06T08:23:59;21.80;;;12.20;;
12852;SDS011;6495;51.808;7.478;2024-03-06T08:26:29;23.53;;;11.93;;
12852;SDS011;6495;51.808;7.478;2024-03-06T08:29:01;20.97;;;12.13;;
12852;SDS011;6495;51.808;7.478;2024-03-06T08:31:29;18.60;;;11.33;;
12852;SDS011;6495;51.808;7.478;2024-03-06T08:34:00;21.87;;;11.60;;
12852;SDS011;6495;51.808;7.478;2024-03-06T08:36:28;23.80;;;12.87;;
12852;SDS011;6495;51.808;7.478;2024-03-06T08:38:57;21.70;;;12.33;;
12852;SDS011;6495;51.808;7.478;2024-03-06T08:41:25;22.53;;;12.53;;
12852;SDS011;6495;51.808;7.478;2024-03-06T08:43:55;20.93;;;12.27;;
12852;SDS011;6495;51.808;7.478;2024-03-06T08:46:24;22.40;;;12.57;;
12852;SDS011;6495;51.808;7.478;2024-03-06T08:48:52;23.13;;;11.80;;
12852;SDS011;6495;51.808;7.478;2024-03-06T08:51:20;20.87;;;11.57;;
12852;SDS011;6495;51.808;7.478;2024-03-06T08:53:49;23.13;;;11.93;;
12852;SDS011;6495;51.808;7.478;2024-03-06T08:56:17;24.73;;;13.17;;
12852;SDS011;6495;51.808;7.478;2024-03-06T08:58:45;27.70;;;13.67;;
12852;SDS011;6495;51.808;7.478;2024-03-06T09:01:15;21.97;;;12.67;;
12852;SDS011;6495;51.808;7.478;2024-03-06T09:03:44;23.63;;;12.90;;
12852;SDS011;6495;51.808;7.478;2024-03-06T09:06:12;22.50;;;11.73;;
12852;SDS011;6495;51.808;7.478;2024-03-06T09:08:40;30.87;;;13.70;;
12852;SDS011;6495;51.808;7.478;2024-03-06T09:11:09;25.37;;;12.23;;
12852;SDS011;6495;51.808;7.478;2024-03-06T09:13:37;27.17;;;12.60;;
12852;SDS011;6495;51.808;7.478;2024-03-06T09:16:06;27.10;;;12.80;;
12852;SDS011;6495;51.808;7.478;2024-03-06T09:18:36;25.53;;;13.83;;
12852;SDS011;6495;51.808;7.478;2024-03-06T09:21:04;24.53;;;12.97;;
12852;SDS011;6495;51.808;7.478;2024-03-06T09:23:33;24.93;;;13.90;;
12852;SDS011;6495;51.808;7.478;2024-03-06T09:26:01;20.67;;;12.77;;
12852;SDS011;6495;51.808;7.478;2024-03-06T09:28:29;20.23;;;11.80;;
12852;SDS011;6495;51.808;7.478;2024-03-06T09:30:58;26.50;;;13.20;;
12852;SDS011;6495;51.808;7.478;2024-03-06T09:33:27;23.70;;;13.00;;
12852;SDS011;6495;51.808;7.478;2024-03-06T09:35:57;25.17;;;13.00;;
12852;SDS011;6495;51.808;7.478;2024-03-06T09:38:25;26.30;;;12.90;;
12852;SDS011;6495;51.808;7.478;2024-03-06T09:40:55;27.93;;;15.67;;
12852;SDS011;6495;51.808;7.478;2024-03-06T09:43:24;24.33;;;13.67;;
12852;SDS011;6495;51.808;7.478;2024-03-06T09:45:56;25.23;;;14.07;;
12852;SDS011;6495;51.808;7.478;2024-03-06T09:48:25;25.83;;;13.60;;
12852;SDS011;6495;51.808;7.478;2024-03-06T09:50:55;25.43;;;13.20;;
12852;SDS011;6495;51.808;7.478;2024-03-06T09:53:29;25.27;;;13.47;;
12852;SDS011;6495;51.808;7.478;2024-03-06T09:55:58;24.37;;;13.07;;
12852;SDS011;6495;51.808;7.478;2024-03-06T09:58:28;25.83;;;13.43;;
12852;SDS011;6495;51.808;7.478;2024-03-06T10:00:56;24.83;;;13.80;;
12852;SDS011;6495;51.808;7.478;2024-03-06T10:03:30;26.90;;;14.13;;
12852;SDS011;6495;51.808;7.478;2024-03-06T10:06:00;24.48;;;13.52;;
12852;SDS011;6495;51.808;7.478;2024-03-06T10:08:34;26.48;;;13.45;;
12852;SDS011;6495;51.808;7.478;2024-03-06T10:11:04;24.50;;;12.98;;
12852;SDS011;6495;51.808;7.478;2024-03-06T10:13:34;28.52;;;14.02;;
12852;SDS011;6495;51.808;7.478;2024-03-06T10:16:03;24.63;;;12.63;;
12852;SDS011;6495;51.808;7.478;2024-03-06T10:18:35;25.55;;;13.60;;
12852;SDS011;6495;51.808;7.478;2024-03-06T10:21:06;26.13;;;14.80;;
12852;SDS011;6495;51.808;7.478;2024-03-06T10:23:37;23.23;;;12.27;;
12852;SDS011;6495;51.808;7.478;2024-03-06T10:26:06;24.15;;;12.77;;
12852;SDS011;6495;51.808;7.478;2024-03-06T10:28:36;21.70;;;12.18;;
12852;SDS011;6495;51.808;7.478;2024-03-06T10:31:05;23.40;;;12.50;;
12852;SDS011;6495;51.808;7.478;2024-03-06T10:33:35;25.58;;;13.85;;
12852;SDS011;6495;51.808;7.478;2024-03-06T10:36:04;22.92;;;12.70;;
12852;SDS011;6495;51.808;7.478;2024-03-06T10:38:38;21.70;;;12.75;;
12852;SDS011;6495;51.808;7.478;2024-03-06T10:41:12;25.30;;;13.23;;
12852;SDS011;6495;51.808;7.478;2024-03-06T10:43:47;25.25;;;12.88;;
12852;SDS011;6495;51.808;7.478;2024-03-06T10:46:20;26.25;;;13.52;;
12852;SDS011;6495;51.808;7.478;2024-03-06T10:48:50;22.92;;;12.75;;
12852;SDS011;6495;51.808;7.478;2024-03-06T10:51:23;23.77;;;12.70;;
12852;SDS011;6495;51.808;7.478;2024-03-06T10:53:54;24.70;;;13.80;;
12852;SDS011;6495;51.808;7.478;2024-03-06T10:56:27;25.35;;;13.07;;
12852;SDS011;6495;51.808;7.478;2024-03-06T10:58:57;25.67;;;13.93;;
12852;SDS011;6495;51.808;7.478;2024-03-06T11:01:28;25.33;;;12.45;;
12852;SDS011;6495;51.808;7.478;2024-03-06T11:04:00;27.30;;;14.63;;
12852;SDS011;6495;51.808;7.478;2024-03-06T11:06:31;22.95;;;13.23;;
12852;SDS011;6495;51.808;7.478;2024-03-06T11:09:00;24.58;;;13.00;;
12852;SDS011;6495;51.808;7.478;2024-03-06T11:11:29;21.88;;;13.23;;
12852;SDS011;6495;51.808;7.478;2024-03-06T11:14:00;24.17;;;13.23;;
12852;SDS011;6495;51.808;7.478;2024-03-06T11:16:32;24.05;;;12.25;;
12852;SDS011;6495;51.808;7.478;2024-03-06T11:19:26;23.50;;;12.57;;
12852;SDS011;6495;51.808;7.478;2024-03-06T11:21:57;24.38;;;12.65;;
12852;SDS011;6495;51.808;7.478;2024-03-06T11:24:33;19.55;;;12.65;;
12852;SDS011;6495;51.808;7.478;2024-03-06T11:27:02;21.90;;;13.00;;
12852;SDS011;6495;51.808;7.478;2024-03-06T11:35:28;22.77;;;12.05;;
12852;SDS011;6495;51.808;7.478;2024-03-06T11:37:58;23.30;;;13.38;;
12852;SDS011;6495;51.808;7.478;2024-03-06T11:40:27;21.65;;;12.35;;
12852;SDS011;6495;51.808;7.478;2024-03-06T11:42:56;24.63;;;12.43;;
12852;SDS011;6495;51.808;7.478;2024-03-06T11:45:53;22.85;;;12.25;;
12852;SDS011;6495;51.808;7.478;2024-03-06T11:48:21;23.38;;;13.48;;
12852;SDS011;6495;51.808;7.478;2024-03-06T11:50:52;23.95;;;12.98;;
12852;SDS011;6495;51.808;7.478;2024-03-06T11:53:22;22.25;;;13.18;;
12852;SDS011;6495;51.808;7.478;2024-03-06T11:55:52;22.70;;;12.93;;
12852;SDS011;6495;51.808;7.478;2024-03-06T11:58:23;24.55;;;12.80;;
12852;SDS011;6495;51.808;7.478;2024-03-06T12:00:51;23.80;;;13.02;;
12852;SDS011;6495;51.808;7.478;2024-03-06T12:03:22;20.85;;;12.73;;
12852;SDS011;6495;51.808;7.478;2024-03-06T12:05:52;21.00;;;12.27;;
12852;SDS011;6495;51.808;7.478;2024-03-06T12:08:21;20.38;;;12.35;;
12852;SDS011;6495;51.808;7.478;2024-03-06T12:10:50;22.42;;;12.75;;
12852;SDS011;6495;51.808;7.478;2024-03-06T12:13:21;22.63;;;12.98;;
12852;SDS011;6495;51.808;7.478;2024-03-06T12:15:50;22.25;;;13.13;;
12852;SDS011;6495;51.808;7.478;2024-03-06T12:18:19;22.60;;;12.73;;
12852;SDS011;6495;51.808;7.478;2024-03-06T12:20:49;31.42;;;15.65;;
12852;SDS011;6495;51.808;7.478;2024-03-06T12:23:22;26.33;;;15.52;;
12852;SDS011;6495;51.808;7.478;2024-03-06T12:26:01;31.17;;;16.77;;
12852;SDS011;6495;51.808;7.478;2024-03-06T12:28:32;34.90;;;17.92;;
12852;SDS011;6495;51.808;7.478;2024-03-06T12:31:01;31.98;;;15.63;;
12852;SDS011;6495;51.808;7.478;2024-03-06T12:33:31;30.15;;;16.25;;
12852;SDS011;6495;51.808;7.478;2024-03-06T12:36:01;29.85;;;15.85;;
12852;SDS011;6495;51.808;7.478;2024-03-06T12:38:33;29.70;;;16.88;;
12852;SDS011;6495;51.808;7.478;2024-03-06T12:41:01;31.40;;;15.70;;
12852;SDS011;6495;51.808;7.478;2024-03-06T12:43:31;26.58;;;14.65;;
12852;SDS011;6495;51.808;7.478;2024-03-06T12:46:01;28.98;;;15.15;;
12852;SDS011;6495;51.808;7.478;2024-03-06T12:48:31;28.73;;;16.13;;
12852;SDS011;6495;51.808;7.478;2024-03-06T12:51:00;33.67;;;16.23;;
12852;SDS011;6495;51.808;7.478;2024-03-06T12:53:33;25.67;;;15.00;;
12852;SDS011;6495;51.808;7.478;2024-03-06T12:56:02;30.95;;;16.23;;
12852;SDS011;6495;51.808;7.478;2024-03-06T12:58:31;28.17;;;15.90;;
12852;SDS011;6495;51.808;7.478;2024-03-06T13:01:01;27.15;;;14.20;;
12852;SDS011;6495;51.808;7.478;2024-03-06T13:03:31;29.83;;;14.82;;
12852;SDS011;6495;51.808;7.478;2024-03-06T13:05:59;29.13;;;16.30;;
12852;SDS011;6495;51.808;7.478;2024-03-06T13:08:28;25.48;;;14.75;;
12852;SDS011;6495;51.808;7.478;2024-03-06T13:10:58;30.15;;;14.50;;
12852;SDS011;6495;51.808;7.478;2024-03-06T13:13:26;27.20;;;14.82;;
12852;SDS011;6495;51.808;7.478;2024-03-06T13:15:56;31.35;;;15.57;;
12852;SDS011;6495;51.808;7.478;2024-03-06T13:18:28;29.88;;;15.63;;
12852;SDS011;6495;51.808;7.478;2024-03-06T13:20:56;27.98;;;13.85;;
12852;SDS011;6495;51.808;7.478;2024-03-06T13:23:24;25.80;;;14.00;;
12852;SDS011;6495;51.808;7.478;2024-03-06T13:25:53;23.58;;;13.27;;
12852;SDS011;6495;51.808;7.478;2024-03-06T13:28:23;23.88;;;14.40;;
12852;SDS011;6495;51.808;7.478;2024-03-06T13:30:51;25.33;;;13.57;;
12852;SDS011;6495;51.808;7.478;2024-03-06T13:33:20;31.05;;;14.30;;
12852;SDS011;6495;51.808;7.478;2024-03-06T13:35:50;26.17;;;13.73;;
12852;SDS011;6495;51.808;7.478;2024-03-06T13:38:20;24.48;;;12.02;;
12852;SDS011;6495;51.808;7.478;2024-03-06T13:40:48;23.52;;;12.95;;
12852;SDS011;6495;51.808;7.478;2024-03-06T13:43:17;28.95;;;13.85;;
12852;SDS011;6495;51.808;7.478;2024-03-06T13:45:50;27.40;;;15.35;;
12852;SDS011;6495;51.808;7.478;2024-03-06T13:48:20;27.00;;;14.23;;
12852;SDS011;6495;51.808;7.478;2024-03-06T13:50:49;23.27;;;13.32;;
12852;SDS011;6495;51.808;7.478;2024-03-06T13:53:17;27.70;;;14.93;;
12852;SDS011;6495;51.808;7.478;2024-03-06T13:55:46;25.42;;;13.18;;
12852;SDS011;6495;51.808;7.478;2024-03-06T13:58:14;25.10;;;13.30;;
12852;SDS011;6495;51.808;7.478;2024-03-06T14:00:42;26.08;;;13.00;;
12852;SDS011;6495;51.808;7.478;2024-03-06T14:03:12;24.20;;;12.45;;
12852;SDS011;6495;51.808;7.478;2024-03-06T14:05:43;26.02;;;13.65;;
12852;SDS011;6495;51.808;7.478;2024-03-06T14:08:11;22.65;;;12.30;;
12852;SDS011;6495;51.808;7.478;2024-03-06T14:10:40;25.83;;;13.13;;
12852;SDS011;6495;51.808;7.478;2024-03-06T14:13:08;24.02;;;12.82;;
12852;SDS011;6495;51.808;7.478;2024-03-06T14:15:36;23.33;;;12.20;;
12852;SDS011;6495;51.808;7.478;2024-03-06T14:18:05;21.75;;;12.52;;
12852;SDS011;6495;51.808;7.478;2024-03-06T14:20:35;23.60;;;12.93;;
12852;SDS011;6495;51.808;7.478;2024-03-06T14:23:05;24.30;;;12.85;;
12852;SDS011;6495;51.808;7.478;2024-03-06T14:25:34;20.85;;;10.77;;
12852;SDS011;6495;51.808;7.478;2024-03-06T14:28:04;26.17;;;12.60;;
12852;SDS011;6495;51.808;7.478;2024-03-06T14:30:34;21.95;;;12.93;;
12852;SDS011;6495;51.808;7.478;2024-03-06T14:33:04;22.40;;;12.45;;
12852;SDS011;6495;51.808;7.478;2024-03-06T14:35:32;24.90;;;12.20;;
12852;SDS011;6495;51.808;7.478;2024-03-06T14:38:02;23.50;;;12.70;;
12852;SDS011;6495;51.808;7.478;2024-03-06T14:40:31;25.75;;;12.95;;
12852;SDS011;6495;51.808;7.478;2024-03-06T14:43:00;22.77;;;12.20;;
12852;SDS011;6495;51.808;7.478;2024-03-06T14:45:28;26.13;;;12.73;;
12852;SDS011;6495;51.808;7.478;2024-03-06T14:47:56;23.55;;;12.68;;
12852;SDS011;6495;51.808;7.478;2024-03-06T14:50:25;22.45;;;12.88;;
12852;SDS011;6495;51.808;7.478;2024-03-06T14:52:55;21.27;;;12.05;;
12852;SDS011;6495;51.808;7.478;2024-03-06T14:55:23;22.75;;;12.65;;
12852;SDS011;6495;51.808;7.478;2024-03-06T14:57:52;22.17;;;12.27;;
12852;SDS011;6495;51.808;7.478;2024-03-06T15:00:20;21.23;;;11.75;;
12852;SDS011;6495;51.808;7.478;2024-03-06T15:02:49;21.77;;;12.35;;
12852;SDS011;6495;51.808;7.478;2024-03-06T15:05:17;21.77;;;11.98;;